createdAt,value
2017-10-25T00:00:05.400Z,12.90
2017-10-25T00:02:33.716Z,12.90
2017-10-25T00:05:02.046Z,12.90
2017-10-25T00:07:30.371Z,12.90
2017-10-25T00:09:59.456Z,12.90
2017-10-25T00:12:27.813Z,12.90
2017-10-25T00:14:56.164Z,12.90
2017-10-25T00:17:24.475Z,12.90
2017-10-25T00:19:52.804Z,12.90
2017-10-25T00:22:21.155Z,12.90
2017-10-25T00:24:49.493Z,12.90
2017-10-25T00:27:17.824Z,12.90
2017-10-25T00:29:46.123Z,12.90
2017-10-25T00:32:14.456Z,12.90
2017-10-25T00:34:43.548Z,12.90
2017-10-25T00:37:12.643Z,12.90
2017-10-25T00:39:41.020Z,12.90
2017-10-25T00:42:09.320Z,12.90
2017-10-25T00:44:37.663Z,12.90
2017-10-25T00:47:05.973Z,12.90
2017-10-25T00:49:34.289Z,12.90
2017-10-25T00:52:02.628Z,12.90
2017-10-25T00:54:30.929Z,13.00
2017-10-25T00:57:00.013Z,13.00
2017-10-25T00:59:28.368Z,13.00
2017-10-25T01:01:56.659Z,13.00
2017-10-25T01:04:24.967Z,13.00
2017-10-25T01:06:54.099Z,13.00
2017-10-25T01:09:22.406Z,13.00
2017-10-25T01:11:51.474Z,13.00
2017-10-25T01:14:20.621Z,13.00
2017-10-25T01:16:48.956Z,13.00
2017-10-25T01:19:19.291Z,13.00
2017-10-25T01:21:47.601Z,13.00
2017-10-25T01:24:15.924Z,13.00
2017-10-25T01:26:44.275Z,13.00
2017-10-25T01:29:22.723Z,13.00
2017-10-25T01:31:51.028Z,13.00
2017-10-25T01:34:19.378Z,13.00
2017-10-25T01:36:47.692Z,13.00
2017-10-25T01:39:16.978Z,13.00
2017-10-25T01:41:45.303Z,13.00
2017-10-25T01:44:13.617Z,13.00
2017-10-25T01:46:41.953Z,13.00
2017-10-25T01:49:11.023Z,13.00
2017-10-25T01:51:39.345Z,13.00
2017-10-25T01:54:07.691Z,13.10
2017-10-25T01:56:36.023Z,13.10
2017-10-25T01:59:04.394Z,13.10
2017-10-25T02:01:32.702Z,13.10
2017-10-25T02:04:01.028Z,13.10
2017-10-25T02:06:29.323Z,13.10
2017-10-25T02:08:57.669Z,13.10
2017-10-25T02:11:26.049Z,13.10
2017-10-25T02:13:55.182Z,13.10
2017-10-25T02:16:23.507Z,13.10
2017-10-25T02:18:52.613Z,13.00
2017-10-25T02:21:21.782Z,13.00
2017-10-25T02:23:50.699Z,13.10
2017-10-25T02:26:20.044Z,13.10
2017-10-25T02:28:48.377Z,13.10
2017-10-25T02:31:16.664Z,13.10
2017-10-25T02:33:45.076Z,13.10
2017-10-25T02:36:13.367Z,13.10
2017-10-25T02:38:41.705Z,13.10
2017-10-25T02:41:10.012Z,13.10
2017-10-25T02:43:38.319Z,13.10
2017-10-25T02:46:06.666Z,13.10
2017-10-25T02:48:35.764Z,13.20
2017-10-25T02:51:04.083Z,13.10
2017-10-25T02:53:32.376Z,13.10
2017-10-25T02:56:00.721Z,13.20
2017-10-25T02:58:29.015Z,13.20
2017-10-25T03:00:57.329Z,13.10
2017-10-25T03:03:25.663Z,13.20
2017-10-25T03:05:53.961Z,13.10
2017-10-25T03:08:22.374Z,13.10
2017-10-25T03:10:50.695Z,13.10
2017-10-25T03:13:19.965Z,13.10
2017-10-25T03:15:48.411Z,13.10
2017-10-25T03:18:16.750Z,13.20
2017-10-25T03:20:45.206Z,13.10
2017-10-25T03:23:14.346Z,13.20
2017-10-25T03:25:42.659Z,13.10
2017-10-25T03:28:11.781Z,13.20
2017-10-25T03:30:40.091Z,13.10
2017-10-25T03:33:08.433Z,13.10
2017-10-25T03:35:37.523Z,13.10
2017-10-25T03:38:05.864Z,13.10
2017-10-25T03:40:34.184Z,13.10
2017-10-25T03:43:02.495Z,13.10
2017-10-25T03:45:31.593Z,13.10
2017-10-25T03:47:59.933Z,13.10
2017-10-25T03:50:29.040Z,13.10
2017-10-25T03:52:57.352Z,13.10
2017-10-25T03:55:26.463Z,13.10
2017-10-25T03:57:55.551Z,13.10
2017-10-25T04:00:23.944Z,13.10
2017-10-25T04:02:52.311Z,13.10
2017-10-25T04:05:21.433Z,13.10
2017-10-25T04:10:43.864Z,13.10
2017-10-25T04:13:12.192Z,13.10
2017-10-25T04:15:41.254Z,13.10
2017-10-25T04:18:09.592Z,13.10
2017-10-25T04:20:37.886Z,13.10
2017-10-25T04:23:06.211Z,13.10
2017-10-25T04:25:35.279Z,13.10
2017-10-25T04:28:03.604Z,13.10
2017-10-25T04:30:31.914Z,13.20
2017-10-25T04:33:00.234Z,13.20
2017-10-25T04:35:28.539Z,13.20
2017-10-25T04:37:57.602Z,13.20
2017-10-25T04:40:25.947Z,13.20
2017-10-25T04:42:55.174Z,13.20
2017-10-25T04:45:23.473Z,13.20
2017-10-25T04:47:51.808Z,13.20
2017-10-25T04:50:20.125Z,13.20
2017-10-25T04:52:48.456Z,13.20
2017-10-25T04:55:16.767Z,13.20
2017-10-25T04:57:45.118Z,13.20
2017-10-25T05:00:13.429Z,13.20
2017-10-25T05:02:41.729Z,13.20
2017-10-25T05:05:10.050Z,13.20
2017-10-25T05:07:38.384Z,13.20
2017-10-25T05:10:06.731Z,13.20
2017-10-25T05:12:35.046Z,13.30
2017-10-25T05:15:03.441Z,13.30
2017-10-25T05:17:31.790Z,13.30
2017-10-25T05:20:00.142Z,13.30
2017-10-25T05:22:28.490Z,13.40
2017-10-25T05:24:56.883Z,13.40
2017-10-25T05:27:31.768Z,13.40
2017-10-25T05:30:00.108Z,13.40
2017-10-25T05:32:28.540Z,13.30
2017-10-25T05:34:56.842Z,13.40
2017-10-25T05:37:25.178Z,13.40
2017-10-25T05:39:53.533Z,13.40
2017-10-25T05:42:21.928Z,13.40
2017-10-25T05:44:51.026Z,13.40
2017-10-25T05:47:19.363Z,13.40
2017-10-25T05:49:47.699Z,13.40
2017-10-25T05:52:16.014Z,13.40
2017-10-25T05:54:44.345Z,13.40
2017-10-25T05:57:12.666Z,13.40
2017-10-25T05:59:41.767Z,13.40
2017-10-25T06:02:10.115Z,13.40
2017-10-25T06:04:38.465Z,13.40
2017-10-25T06:07:06.789Z,13.40
2017-10-25T06:09:36.137Z,13.40
2017-10-25T06:12:04.457Z,13.40
2017-10-25T06:14:32.781Z,13.40
2017-10-25T06:17:01.129Z,13.40
2017-10-25T06:19:30.553Z,13.50
2017-10-25T06:21:59.660Z,13.50
2017-10-25T06:24:27.977Z,13.50
2017-10-25T06:26:57.081Z,13.50
2017-10-25T06:29:25.405Z,13.50
2017-10-25T06:31:54.526Z,13.50
2017-10-25T06:34:23.601Z,13.40
2017-10-25T06:36:51.906Z,13.40
2017-10-25T06:39:20.238Z,13.50
2017-10-25T06:41:49.317Z,13.50
2017-10-25T06:44:17.670Z,13.50
2017-10-25T06:46:46.758Z,13.50
2017-10-25T06:49:15.126Z,13.50
2017-10-25T06:51:43.444Z,13.50
2017-10-25T06:54:11.805Z,13.60
2017-10-25T06:56:40.914Z,13.50
2017-10-25T06:59:10.019Z,13.50
2017-10-25T07:01:38.371Z,13.50
2017-10-25T07:04:06.719Z,13.50
2017-10-25T07:06:35.050Z,13.50
2017-10-25T07:09:03.438Z,13.50
2017-10-25T07:11:32.596Z,13.50
2017-10-25T07:14:00.937Z,13.50
2017-10-25T07:16:29.332Z,13.50
2017-10-25T07:18:57.644Z,13.50
2017-10-25T07:21:25.949Z,13.50
2017-10-25T07:23:54.290Z,13.50
2017-10-25T07:26:23.365Z,13.50
2017-10-25T07:28:51.740Z,13.50
2017-10-25T07:31:20.101Z,13.50
2017-10-25T07:33:49.184Z,13.50
2017-10-25T07:36:17.510Z,13.50
2017-10-25T07:38:45.929Z,13.50
2017-10-25T07:41:15.048Z,13.50
2017-10-25T07:43:43.435Z,13.50
2017-10-25T07:46:11.818Z,13.50
2017-10-25T07:48:40.189Z,13.50
2017-10-25T07:51:09.288Z,13.50
2017-10-25T07:53:37.816Z,13.50
2017-10-25T07:56:06.159Z,13.50
2017-10-25T07:58:34.507Z,13.50
2017-10-25T08:01:03.617Z,13.50
2017-10-25T08:03:32.141Z,13.50
2017-10-25T08:06:01.244Z,13.60
2017-10-25T08:08:29.552Z,13.60
2017-10-25T08:11:21.186Z,13.60
2017-10-25T08:13:49.510Z,13.60
2017-10-25T08:16:17.851Z,13.60
2017-10-25T08:18:46.181Z,13.60
2017-10-25T08:21:15.284Z,13.60
2017-10-25T08:23:43.614Z,13.60
2017-10-25T08:26:12.760Z,13.60
2017-10-25T08:28:41.107Z,13.60
2017-10-25T08:31:09.422Z,13.60
2017-10-25T08:33:38.526Z,13.70
2017-10-25T08:36:07.653Z,13.70
2017-10-25T08:38:36.014Z,13.70
2017-10-25T08:41:04.322Z,13.70
2017-10-25T08:43:32.658Z,13.70
2017-10-25T08:46:01.002Z,13.70
2017-10-25T08:48:29.557Z,13.70
2017-10-25T08:50:57.898Z,13.70
2017-10-25T08:53:27.005Z,13.80
2017-10-25T08:55:56.114Z,13.80
2017-10-25T08:58:25.208Z,13.90
2017-10-25T09:00:53.549Z,13.90
2017-10-25T09:03:21.939Z,14.00
2017-10-25T09:05:50.281Z,14.00
2017-10-25T09:08:18.644Z,14.00
2017-10-25T09:10:46.990Z,14.00
2017-10-25T09:13:15.391Z,14.10
2017-10-25T09:15:43.703Z,14.10
2017-10-25T09:18:12.022Z,14.20
2017-10-25T09:20:40.365Z,14.20
2017-10-25T09:23:08.749Z,14.30
2017-10-25T09:25:37.100Z,14.30
2017-10-25T09:28:06.190Z,14.50
2017-10-25T09:30:34.506Z,14.50
2017-10-25T09:33:03.625Z,14.60
2017-10-25T09:35:31.927Z,14.60
2017-10-25T09:38:00.243Z,14.60
2017-10-25T09:40:28.631Z,14.70
2017-10-25T09:42:57.502Z,14.80
2017-10-25T09:45:25.837Z,14.80
2017-10-25T09:47:54.151Z,14.80
2017-10-25T09:50:22.460Z,14.90
2017-10-25T09:52:50.830Z,15.00
2017-10-25T09:55:19.949Z,15.30
2017-10-25T09:57:48.381Z,15.20
2017-10-25T10:00:16.721Z,15.30
2017-10-25T10:02:45.059Z,15.40
2017-10-25T10:05:13.385Z,15.50
2017-10-25T10:07:41.701Z,15.60
2017-10-25T10:10:10.034Z,15.80
2017-10-25T10:12:38.351Z,16.10
2017-10-25T10:15:07.490Z,16.20
2017-10-25T10:17:36.634Z,16.40
2017-10-25T10:20:04.939Z,16.40
2017-10-25T10:22:33.301Z,17.00
2017-10-25T10:25:01.773Z,17.20
2017-10-25T10:27:30.109Z,17.30
2017-10-25T10:29:59.225Z,16.80
2017-10-25T10:32:27.525Z,16.80
2017-10-25T10:34:55.870Z,16.80
2017-10-25T10:37:24.180Z,16.70
2017-10-25T10:39:52.486Z,16.60
2017-10-25T10:42:20.841Z,16.50
2017-10-25T10:44:49.144Z,16.30
2017-10-25T10:47:18.247Z,16.30
2017-10-25T10:49:46.598Z,16.30
2017-10-25T10:52:14.921Z,16.20
2017-10-25T10:54:43.233Z,16.10
2017-10-25T10:57:11.592Z,16.20
2017-10-25T10:59:41.146Z,16.60
2017-10-25T11:02:09.467Z,16.60
2017-10-25T11:04:37.834Z,16.70
2017-10-25T11:07:06.918Z,16.90
2017-10-25T11:09:35.289Z,16.90
2017-10-25T11:12:03.592Z,17.10
2017-10-25T11:14:31.929Z,16.90
2017-10-25T11:17:00.254Z,16.90
2017-10-25T11:19:28.598Z,16.90
2017-10-25T11:21:56.960Z,16.90
2017-10-25T11:24:26.058Z,16.70
2017-10-25T11:26:54.375Z,16.70
2017-10-25T11:29:23.466Z,17.00
2017-10-25T11:31:51.819Z,16.90
2017-10-25T11:34:20.134Z,17.10
2017-10-25T11:36:48.465Z,17.30
2017-10-25T11:39:16.807Z,17.30
2017-10-25T11:41:45.113Z,17.50
2017-10-25T11:44:14.208Z,17.60
2017-10-25T11:46:42.536Z,17.60
2017-10-25T11:49:11.642Z,17.40
2017-10-25T11:51:40.015Z,17.40
2017-10-25T11:54:08.349Z,17.20
2017-10-25T11:56:36.687Z,17.20
2017-10-25T11:59:05.861Z,17.00
2017-10-25T12:01:34.176Z,16.90
2017-10-25T12:04:02.513Z,17.00
2017-10-25T12:06:30.901Z,17.00
2017-10-25T12:08:59.242Z,17.10
2017-10-25T12:11:27.574Z,17.10
2017-10-25T12:13:55.893Z,17.10
2017-10-25T12:16:24.205Z,17.10
2017-10-25T12:18:52.548Z,17.00
2017-10-25T12:21:20.890Z,17.10
2017-10-25T12:23:49.242Z,17.20
2017-10-25T12:26:17.571Z,17.20
2017-10-25T12:28:45.911Z,17.30
2017-10-25T12:31:14.219Z,17.70
2017-10-25T12:33:42.526Z,17.80
2017-10-25T12:36:10.850Z,17.80
2017-10-25T12:38:39.930Z,18.00
2017-10-25T12:41:08.292Z,18.00
2017-10-25T12:43:36.628Z,18.30
2017-10-25T12:46:04.977Z,18.30
2017-10-25T12:48:34.097Z,18.10
2017-10-25T12:51:03.258Z,17.90
2017-10-25T12:53:31.554Z,17.90
2017-10-25T12:55:59.856Z,17.80
2017-10-25T12:58:28.265Z,17.70
2017-10-25T13:00:56.615Z,17.60
2017-10-25T13:03:24.922Z,17.70
2017-10-25T13:05:53.265Z,17.70
2017-10-25T13:08:21.575Z,17.80
2017-10-25T13:10:53.743Z,18.10
2017-10-25T13:13:24.779Z,18.60
2017-10-25T13:15:55.178Z,18.60
2017-10-25T13:18:24.759Z,18.60
2017-10-25T13:20:53.070Z,18.50
2017-10-25T13:23:21.392Z,18.50
2017-10-25T13:25:50.458Z,18.70
2017-10-25T13:28:18.795Z,18.70
2017-10-25T13:30:47.117Z,18.70
2017-10-25T13:33:15.429Z,18.70
2017-10-25T13:35:44.551Z,18.90
2017-10-25T13:38:12.910Z,18.90
2017-10-25T13:40:41.226Z,18.90
2017-10-25T13:43:09.553Z,19.00
2017-10-25T13:45:38.660Z,19.30
2017-10-25T13:48:07.765Z,19.40
2017-10-25T13:50:36.114Z,19.30
2017-10-25T13:53:05.214Z,19.50
2017-10-25T13:55:33.549Z,19.50
2017-10-25T13:58:02.720Z,19.60
2017-10-25T14:00:32.452Z,19.60
2017-10-25T14:03:00.794Z,19.60
2017-10-25T14:05:29.091Z,19.60
2017-10-25T14:08:21.403Z,19.60
2017-10-25T14:10:51.457Z,19.60
2017-10-25T14:13:19.967Z,19.60
2017-10-25T14:15:49.936Z,19.40
2017-10-25T14:18:19.039Z,19.30
2017-10-25T14:20:47.343Z,19.30
2017-10-25T14:23:15.702Z,19.30
2017-10-25T14:25:44.005Z,19.30
2017-10-25T14:28:30.202Z,19.20
2017-10-25T14:30:58.640Z,19.20
2017-10-25T14:33:26.933Z,19.20
2017-10-25T14:35:55.269Z,19.10
2017-10-25T14:38:23.598Z,19.00
2017-10-25T14:40:51.937Z,18.90
2017-10-25T14:43:20.233Z,18.80
2017-10-25T14:45:49.494Z,18.60
2017-10-25T14:48:17.809Z,18.60
2017-10-25T14:50:46.144Z,18.60
2017-10-25T14:53:14.500Z,18.50
2017-10-25T14:55:43.733Z,18.40
2017-10-25T14:58:12.841Z,18.30
2017-10-25T15:00:41.170Z,18.30
2017-10-25T15:03:10.238Z,18.20
2017-10-25T15:05:38.557Z,18.20
2017-10-25T15:08:06.900Z,18.20
2017-10-25T15:10:35.232Z,18.20
2017-10-25T15:13:03.631Z,18.20
2017-10-25T15:15:32.309Z,18.20
2017-10-25T15:18:00.625Z,18.10
2017-10-25T15:20:29.704Z,18.00
2017-10-25T15:22:58.037Z,18.00
2017-10-25T15:25:26.339Z,18.00
2017-10-25T15:27:55.426Z,17.90
2017-10-25T15:30:23.760Z,17.90
2017-10-25T15:32:52.097Z,17.80
2017-10-25T15:35:20.409Z,17.80
2017-10-25T15:37:49.505Z,17.60
2017-10-25T15:40:17.803Z,17.60
2017-10-25T15:42:46.144Z,17.60
2017-10-25T15:45:14.459Z,17.50
2017-10-25T15:47:42.752Z,17.50
2017-10-25T15:50:11.073Z,17.40
2017-10-25T15:52:39.387Z,17.40
2017-10-25T15:55:07.724Z,17.30
2017-10-25T15:57:36.061Z,17.30
2017-10-25T16:00:04.389Z,17.20
2017-10-25T16:02:32.722Z,17.10
2017-10-25T16:05:01.043Z,17.10
2017-10-25T16:07:29.406Z,17.00
2017-10-25T16:09:58.502Z,16.90
2017-10-25T16:12:26.851Z,16.80
2017-10-25T16:14:55.187Z,16.70
2017-10-25T16:17:23.494Z,16.60
2017-10-25T16:19:51.817Z,16.60
2017-10-25T16:22:20.160Z,16.50
2017-10-25T16:24:48.503Z,16.40
2017-10-25T16:27:17.605Z,16.30
2017-10-25T16:29:45.906Z,16.20
2017-10-25T16:32:14.243Z,16.30
2017-10-25T16:34:42.549Z,16.20
2017-10-25T16:37:10.907Z,16.10
2017-10-25T16:39:39.232Z,16.00
2017-10-25T16:42:08.388Z,16.00
2017-10-25T16:44:36.734Z,15.90
2017-10-25T16:47:05.090Z,15.90
2017-10-25T16:49:33.408Z,15.90
2017-10-25T16:52:01.733Z,15.80
2017-10-25T16:54:30.103Z,15.80
2017-10-25T16:56:59.046Z,15.80
2017-10-25T16:59:28.438Z,15.70
2017-10-25T17:01:56.824Z,15.70
2017-10-25T17:04:25.562Z,15.60
2017-10-25T17:06:53.895Z,15.60
2017-10-25T17:09:22.198Z,15.60
2017-10-25T17:11:50.543Z,15.50
2017-10-25T17:14:18.865Z,15.50
2017-10-25T17:16:47.157Z,15.40
2017-10-25T17:19:16.242Z,15.40
2017-10-25T17:21:44.615Z,15.30
2017-10-25T17:24:12.946Z,15.30
2017-10-25T17:26:41.269Z,15.30
2017-10-25T17:29:10.411Z,15.20
2017-10-25T17:31:38.780Z,15.20
2017-10-25T17:34:07.132Z,15.20
2017-10-25T17:36:36.214Z,15.10
2017-10-25T17:39:05.313Z,15.10
2017-10-25T17:41:39.559Z,15.00
2017-10-25T17:44:07.896Z,15.00
2017-10-25T17:46:36.191Z,15.00
2017-10-25T17:49:04.583Z,14.90
2017-10-25T17:51:32.916Z,14.90
2017-10-25T17:54:01.258Z,14.90
2017-10-25T17:56:29.597Z,14.80
2017-10-25T17:58:57.979Z,14.80
2017-10-25T18:01:26.303Z,14.80
2017-10-25T18:03:54.620Z,14.70
2017-10-25T18:06:22.950Z,14.70
2017-10-25T18:08:51.296Z,14.70
2017-10-25T18:11:19.595Z,14.60
2017-10-25T18:13:47.885Z,14.60
2017-10-25T18:16:16.244Z,14.60
2017-10-25T18:18:44.585Z,14.50
2017-10-25T18:21:12.987Z,14.50
2017-10-25T18:23:41.296Z,14.50
2017-10-25T18:26:09.604Z,14.40
2017-10-25T18:28:37.966Z,14.50
2017-10-25T18:31:06.283Z,14.50
2017-10-25T18:33:35.337Z,14.40
2017-10-25T18:36:03.684Z,14.40
2017-10-25T18:38:32.762Z,14.40
2017-10-25T18:41:01.089Z,14.40
2017-10-25T18:43:30.219Z,14.30
2017-10-25T18:45:58.537Z,14.30
2017-10-25T18:48:27.726Z,14.30
2017-10-25T18:50:56.945Z,14.30
2017-10-25T18:53:25.543Z,14.20
2017-10-25T18:55:53.885Z,14.20
2017-10-25T18:58:22.213Z,14.20
2017-10-25T19:00:50.604Z,14.10
2017-10-25T19:03:18.987Z,14.10
2017-10-25T19:05:47.342Z,14.10
2017-10-25T19:08:15.836Z,14.00
2017-10-25T19:10:44.947Z,13.90
2017-10-25T19:13:13.294Z,13.90
2017-10-25T19:15:41.642Z,13.90
2017-10-25T19:18:09.977Z,13.90
2017-10-25T19:20:39.074Z,13.80
2017-10-25T19:23:07.382Z,13.80
2017-10-25T19:25:36.493Z,13.80
2017-10-25T19:28:04.836Z,13.70
2017-10-25T19:30:33.170Z,13.80
2017-10-25T19:33:02.271Z,13.70
2017-10-25T19:35:30.596Z,13.70
2017-10-25T19:37:58.933Z,13.80
2017-10-25T19:40:27.236Z,13.80
2017-10-25T19:42:55.611Z,13.80
2017-10-25T19:45:23.985Z,13.80
2017-10-25T19:47:52.400Z,13.80
2017-10-25T19:50:21.508Z,13.80
2017-10-25T19:52:49.907Z,13.70
2017-10-25T19:55:18.335Z,13.80
2017-10-25T19:57:46.866Z,13.80
2017-10-25T20:00:15.929Z,13.90
2017-10-25T20:02:44.287Z,13.90
2017-10-25T20:05:12.590Z,13.90
2017-10-25T20:07:40.969Z,13.90
2017-10-25T20:10:10.092Z,14.00
2017-10-25T20:12:38.436Z,14.00
2017-10-25T20:15:06.735Z,14.00
2017-10-25T20:17:35.107Z,14.00
2017-10-25T20:20:03.395Z,14.00
2017-10-25T20:22:31.723Z,14.00
2017-10-25T20:25:00.093Z,13.90
2017-10-25T20:27:28.442Z,13.90
2017-10-25T20:29:57.557Z,13.90
2017-10-25T20:32:25.927Z,13.90
2017-10-25T20:34:54.297Z,13.90
2017-10-25T20:37:22.621Z,13.90
2017-10-25T20:39:51.872Z,14.00
2017-10-25T20:42:20.807Z,14.00
2017-10-25T20:44:49.944Z,14.00
2017-10-25T20:47:19.422Z,14.00
2017-10-25T20:49:47.917Z,13.90
2017-10-25T20:52:16.229Z,13.90
2017-10-25T20:54:45.345Z,13.90
2017-10-25T20:57:13.679Z,13.90
2017-10-25T20:59:42.780Z,13.90
2017-10-25T21:02:11.132Z,13.90
2017-10-25T21:04:39.486Z,13.90
2017-10-25T21:07:07.815Z,13.90
2017-10-25T21:09:36.360Z,13.90
2017-10-25T21:12:04.642Z,13.90
2017-10-25T21:14:32.973Z,13.90
2017-10-25T21:17:01.283Z,14.00
2017-10-25T21:19:30.371Z,13.90
2017-10-25T21:22:04.289Z,13.90
2017-10-25T21:24:32.594Z,13.90
2017-10-25T21:27:00.960Z,13.80
2017-10-25T21:29:29.279Z,13.70
2017-10-25T21:31:57.631Z,13.70
2017-10-25T21:34:25.951Z,13.70
2017-10-25T21:36:54.257Z,13.70
2017-10-25T21:39:23.615Z,13.60
2017-10-25T21:41:52.005Z,13.60
2017-10-25T21:44:20.423Z,13.60
2017-10-25T21:46:49.953Z,13.60
2017-10-25T21:49:18.327Z,13.60
2017-10-25T21:51:46.716Z,13.60
2017-10-25T21:54:15.057Z,13.50
2017-10-25T21:56:43.359Z,13.50
2017-10-25T21:59:11.709Z,13.60
2017-10-25T22:01:41.040Z,13.50
2017-10-25T22:04:09.361Z,13.50
2017-10-25T22:06:37.709Z,13.50
2017-10-25T22:09:06.057Z,13.40
2017-10-25T22:11:34.419Z,13.30
2017-10-25T22:14:02.737Z,13.30
2017-10-25T22:16:31.809Z,13.20
2017-10-25T22:19:00.908Z,13.10
2017-10-25T22:21:36.799Z,13.10
2017-10-25T22:24:06.010Z,13.00
2017-10-25T22:26:35.085Z,12.90
2017-10-25T22:29:04.213Z,12.90
2017-10-25T22:31:32.554Z,12.90
2017-10-25T22:34:00.888Z,12.80
2017-10-25T22:36:53.826Z,12.80
2017-10-25T22:39:22.124Z,12.70
2017-10-25T22:41:51.364Z,12.70
2017-10-25T22:44:19.707Z,12.60
2017-10-25T22:46:48.079Z,12.60
2017-10-25T22:49:16.376Z,12.50
2017-10-25T22:51:44.676Z,12.50
2017-10-25T22:54:13.002Z,12.40
2017-10-25T22:56:42.067Z,12.20
2017-10-25T22:59:11.165Z,12.20
2017-10-25T23:01:41.250Z,12.20
2017-10-25T23:04:09.581Z,12.20
2017-10-25T23:06:37.927Z,12.20
2017-10-25T23:09:06.208Z,12.10
2017-10-25T23:11:34.528Z,12.10
2017-10-25T23:14:03.586Z,12.00
2017-10-25T23:16:32.693Z,12.00
2017-10-25T23:19:01.004Z,12.00
2017-10-25T23:21:29.798Z,11.90
2017-10-25T23:23:58.136Z,11.80
2017-10-25T23:26:26.448Z,11.70
2017-10-25T23:28:55.659Z,10.80
2017-10-25T23:31:24.034Z,11.60
2017-10-25T23:33:52.367Z,11.60
2017-10-25T23:36:21.617Z,11.50
2017-10-25T23:38:51.426Z,11.40
2017-10-25T23:41:21.485Z,11.30
2017-10-25T23:43:49.840Z,11.30
2017-10-25T23:46:18.199Z,11.30
2017-10-25T23:48:46.517Z,11.30
2017-10-25T23:51:15.601Z,11.20
2017-10-25T23:53:43.921Z,11.20
2017-10-25T23:56:12.220Z,11.20
2017-10-25T23:58:40.542Z,11.30
